Terminal Aerodrome Forecast
Issued by NWS

Current Version | Previous Version | Text Only | Print | Product List | Glossary On
Versions: 1 2 3 4 5 6 7 8 9 10 11 12 13
000
FTUS43 KMQT 240520
TAFSAW
TAF
KSAW 240520Z 2406/2506 29006KT P6SM SCT100
     FM241100 31006KT P6SM BKN070
     FM241600 34006KT P6SM VCSH BKN045
     FM241800 35006KT P6SM -SHRA BKN035
     FM242200 34006KT P6SM VCSH OVC025
     FM250000 35006KT P6SM BKN030=

USA.gov is the U.S. government's official web portal to all federal, state and local government web resources and services.